sensor_id;sensor_type;location;lat;lon;timestamp;pressure;altitude;pressure_sealevel;temperature;humidity
11936;BME280;6027;48.576;9.180;2022-11-27T00:00:24;98070.09;;;-0.01;100.00
11936;BME280;6027;48.576;9.180;2022-11-27T00:02:49;98075.09;;;0.18;100.00
11936;BME280;6027;48.576;9.180;2022-11-27T00:05:15;98071.69;;;0.46;100.00
11936;BME280;6027;48.576;9.180;2022-11-27T00:07:40;98071.25;;;0.54;100.00
11936;BME280;6027;48.576;9.180;2022-11-27T00:10:06;98062.97;;;0.61;100.00
11936;BME280;6027;48.576;9.180;2022-11-27T00:12:32;98059.91;;;0.55;100.00
11936;BME280;6027;48.576;9.180;2022-11-27T00:14:58;98065.72;;;0.30;100.00
11936;BME280;6027;48.576;9.180;2022-11-27T00:17:23;98053.59;;;0.15;100.00
11936;BME280;6027;48.576;9.180;2022-11-27T00:19:49;98063.00;;;0.02;100.00
11936;BME280;6027;48.576;9.180;2022-11-27T00:22:14;98062.06;;;0.18;100.00
11936;BME280;6027;48.576;9.180;2022-11-27T00:24:42;98063.28;;;0.27;100.00
11936;BME280;6027;48.576;9.180;2022-11-27T00:27:07;98046.00;;;0.40;100.00
11936;BME280;6027;48.576;9.180;2022-11-27T00:29:33;98043.34;;;0.56;100.00
11936;BME280;6027;48.576;9.180;2022-11-27T00:31:58;98048.34;;;0.45;100.00
11936;BME280;6027;48.576;9.180;2022-11-27T00:34:24;98038.97;;;0.56;100.00
11936;BME280;6027;48.576;9.180;2022-11-27T00:36:49;98032.34;;;0.51;100.00
11936;BME280;6027;48.576;9.180;2022-11-27T00:39:15;98037.91;;;0.30;100.00
11936;BME280;6027;48.576;9.180;2022-11-27T00:41:40;98036.72;;;0.36;100.00
11936;BME280;6027;48.576;9.180;2022-11-27T00:44:06;98031.50;;;0.36;100.00
11936;BME280;6027;48.576;9.180;2022-11-27T00:46:33;98027.75;;;0.40;100.00
11936;BME280;6027;48.576;9.180;2022-11-27T00:49:01;98024.63;;;0.35;100.00
11936;BME280;6027;48.576;9.180;2022-11-27T00:51:27;98026.09;;;0.39;100.00
11936;BME280;6027;48.576;9.180;2022-11-27T00:53:53;98018.09;;;0.42;100.00
11936;BME280;6027;48.576;9.180;2022-11-27T00:56:25;98015.13;;;0.48;100.00
11936;BME280;6027;48.576;9.180;2022-11-27T00:58:51;98008.25;;;0.47;100.00
11936;BME280;6027;48.576;9.180;2022-11-27T01:01:23;98000.16;;;0.52;100.00
11936;BME280;6027;48.576;9.180;2022-11-27T01:03:49;97991.41;;;0.53;100.00
11936;BME280;6027;48.576;9.180;2022-11-27T01:06:17;97974.38;;;0.47;100.00
11936;BME280;6027;48.576;9.180;2022-11-27T01:08:43;97977.72;;;0.35;100.00
11936;BME280;6027;48.576;9.180;2022-11-27T01:11:17;97974.72;;;0.27;100.00
11936;BME280;6027;48.576;9.180;2022-11-27T01:13:43;97979.75;;;0.30;100.00
11936;BME280;6027;48.576;9.180;2022-11-27T01:16:12;97974.72;;;0.27;100.00
11936;BME280;6027;48.576;9.180;2022-11-27T01:18:40;97973.31;;;0.07;100.00
11936;BME280;6027;48.576;9.180;2022-11-27T01:21:06;97969.50;;;-0.02;100.00
11936;BME280;6027;48.576;9.180;2022-11-27T01:23:32;97969.13;;;-0.40;100.00
11936;BME280;6027;48.576;9.180;2022-11-27T01:26:04;97974.00;;;-0.49;100.00
11936;BME280;6027;48.576;9.180;2022-11-27T01:28:30;97972.44;;;-0.67;100.00
11936;BME280;6027;48.576;9.180;2022-11-27T01:30:56;97964.47;;;-0.80;100.00
11936;BME280;6027;48.576;9.180;2022-11-27T01:33:22;97963.94;;;-0.71;100.00
11936;BME280;6027;48.576;9.180;2022-11-27T01:35:58;97954.34;;;-0.55;100.00
11936;BME280;6027;48.576;9.180;2022-11-27T01:38:25;97955.47;;;-0.75;100.00
11936;BME280;6027;48.576;9.180;2022-11-27T01:41:18;97949.78;;;-0.65;100.00
11936;BME280;6027;48.576;9.180;2022-11-27T01:43:53;97957.50;;;-0.64;100.00
11936;BME280;6027;48.576;9.180;2022-11-27T01:46:41;97954.56;;;-0.58;100.00
11936;BME280;6027;48.576;9.180;2022-11-27T01:54:07;97936.78;;;-0.65;100.00
11936;BME280;6027;48.576;9.180;2022-11-27T01:56:33;97933.28;;;-0.80;100.00
11936;BME280;6027;48.576;9.180;2022-11-27T01:59:00;97932.16;;;-0.60;100.00
11936;BME280;6027;48.576;9.180;2022-11-27T02:01:26;97928.34;;;-0.55;100.00
11936;BME280;6027;48.576;9.180;2022-11-27T02:03:53;97925.59;;;-0.38;100.00
11936;BME280;6027;48.576;9.180;2022-11-27T02:06:22;97929.94;;;-0.52;100.00
11936;BME280;6027;48.576;9.180;2022-11-27T02:08:49;97930.09;;;-0.40;100.00
11936;BME280;6027;48.576;9.180;2022-11-27T02:11:31;97925.00;;;-0.27;100.00
11936;BME280;6027;48.576;9.180;2022-11-27T02:14:30;97918.41;;;-0.18;100.00
11936;BME280;6027;48.576;9.180;2022-11-27T02:31:07;97924.25;;;-0.29;100.00
11936;BME280;6027;48.576;9.180;2022-11-27T02:33:38;97917.72;;;-0.36;100.00
11936;BME280;6027;48.576;9.180;2022-11-27T02:36:09;97915.03;;;-0.35;100.00
11936;BME280;6027;48.576;9.180;2022-11-27T02:38:42;97926.59;;;-0.54;100.00
11936;BME280;6027;48.576;9.180;2022-11-27T02:41:14;97923.63;;;-0.48;100.00
11936;BME280;6027;48.576;9.180;2022-11-27T02:43:45;97924.78;;;-0.38;100.00
11936;BME280;6027;48.576;9.180;2022-11-27T02:46:13;97930.13;;;-0.25;100.00
11936;BME280;6027;48.576;9.180;2022-11-27T02:49:01;97927.16;;;-0.19;100.00
11936;BME280;6027;48.576;9.180;2022-11-27T02:51:35;97923.66;;;-0.04;100.00
11936;BME280;6027;48.576;9.180;2022-11-27T02:54:05;97921.75;;;-0.16;100.00
11936;BME280;6027;48.576;9.180;2022-11-27T02:56:32;97912.09;;;-0.14;100.00
11936;BME280;6027;48.576;9.180;2022-11-27T02:59:02;97915.69;;;-0.31;100.00
11936;BME280;6027;48.576;9.180;2022-11-27T03:01:33;97910.56;;;-0.32;100.00
11936;BME280;6027;48.576;9.180;2022-11-27T03:04:02;97896.38;;;-0.27;100.00
11936;BME280;6027;48.576;9.180;2022-11-27T03:06:42;97904.09;;;-0.25;100.00
11936;BME280;6027;48.576;9.180;2022-11-27T03:11:37;97885.66;;;-0.37;100.00
11936;BME280;6027;48.576;9.180;2022-11-27T03:14:06;97898.31;;;-0.30;100.00
11936;BME280;6027;48.576;9.180;2022-11-27T03:16:39;97897.66;;;-0.34;100.00
11936;BME280;6027;48.576;9.180;2022-11-27T03:19:34;97897.94;;;-0.39;100.00
11936;BME280;6027;48.576;9.180;2022-11-27T03:22:03;97895.91;;;-0.63;100.00
11936;BME280;6027;48.576;9.180;2022-11-27T03:24:32;97897.69;;;-0.64;100.00
11936;BME280;6027;48.576;9.180;2022-11-27T03:26:58;97891.59;;;-0.49;100.00
11936;BME280;6027;48.576;9.180;2022-11-27T03:29:28;97888.16;;;-0.49;100.00
11936;BME280;6027;48.576;9.180;2022-11-27T03:31:55;97882.94;;;-0.49;100.00
11936;BME280;6027;48.576;9.180;2022-11-27T03:34:21;97874.78;;;-0.43;100.00
11936;BME280;6027;48.576;9.180;2022-11-27T03:36:46;97878.91;;;-0.39;100.00
11936;BME280;6027;48.576;9.180;2022-11-27T03:39:12;97880.84;;;-0.28;100.00
11936;BME280;6027;48.576;9.180;2022-11-27T03:42:01;97880.28;;;-0.33;100.00
11936;BME280;6027;48.576;9.180;2022-11-27T03:47:15;97880.53;;;-0.38;100.00
11936;BME280;6027;48.576;9.180;2022-11-27T03:52:38;97883.63;;;-0.31;100.00
11936;BME280;6027;48.576;9.180;2022-11-27T03:58:18;97883.44;;;-0.28;100.00
11936;BME280;6027;48.576;9.180;2022-11-27T04:00:46;97880.69;;;-0.25;100.00
11936;BME280;6027;48.576;9.180;2022-11-27T04:03:23;97884.94;;;-0.24;100.00
11936;BME280;6027;48.576;9.180;2022-11-27T04:05:50;97878.44;;;-0.31;100.00
11936;BME280;6027;48.576;9.180;2022-11-27T04:08:15;97881.59;;;-0.26;100.00
11936;BME280;6027;48.576;9.180;2022-11-27T04:10:41;97885.38;;;-0.46;100.00
11936;BME280;6027;48.576;9.180;2022-11-27T04:13:06;97868.66;;;-0.42;100.00
11936;BME280;6027;48.576;9.180;2022-11-27T04:15:32;97872.00;;;-0.40;100.00
11936;BME280;6027;48.576;9.180;2022-11-27T04:17:57;97867.53;;;-0.38;100.00
11936;BME280;6027;48.576;9.180;2022-11-27T04:20:23;97867.75;;;-0.41;100.00
11936;BME280;6027;48.576;9.180;2022-11-27T04:22:48;97870.44;;;-0.43;100.00
11936;BME280;6027;48.576;9.180;2022-11-27T04:25:14;97866.72;;;-0.39;100.00
11936;BME280;6027;48.576;9.180;2022-11-27T04:27:39;97869.66;;;-0.59;100.00
11936;BME280;6027;48.576;9.180;2022-11-27T04:30:05;97857.75;;;-0.63;100.00
11936;BME280;6027;48.576;9.180;2022-11-27T04:32:31;97849.78;;;-0.60;100.00
11936;BME280;6027;48.576;9.180;2022-11-27T04:34:56;97859.34;;;-0.46;100.00
11936;BME280;6027;48.576;9.180;2022-11-27T04:37:22;97851.31;;;-0.57;100.00
11936;BME280;6027;48.576;9.180;2022-11-27T04:39:47;97847.91;;;-0.58;100.00
11936;BME280;6027;48.576;9.180;2022-11-27T04:42:13;97831.19;;;-0.54;100.00
11936;BME280;6027;48.576;9.180;2022-11-27T04:44:38;97843.09;;;-0.50;100.00
11936;BME280;6027;48.576;9.180;2022-11-27T04:47:04;97838.72;;;-0.49;100.00
11936;BME280;6027;48.576;9.180;2022-11-27T04:49:29;97840.91;;;-0.57;100.00
11936;BME280;6027;48.576;9.180;2022-11-27T04:51:55;97828.03;;;-0.59;100.00
11936;BME280;6027;48.576;9.180;2022-11-27T04:54:20;97833.88;;;-0.55;100.00
11936;BME280;6027;48.576;9.180;2022-11-27T04:56:45;97836.25;;;-0.81;100.00
11936;BME280;6027;48.576;9.180;2022-11-27T04:59:11;97834.31;;;-0.93;100.00
11936;BME280;6027;48.576;9.180;2022-11-27T05:01:36;97840.31;;;-1.07;100.00
11936;BME280;6027;48.576;9.180;2022-11-27T05:04:02;97830.84;;;-1.08;100.00
11936;BME280;6027;48.576;9.180;2022-11-27T05:06:28;97829.09;;;-1.07;100.00
11936;BME280;6027;48.576;9.180;2022-11-27T05:08:56;97817.34;;;-0.98;100.00
11936;BME280;6027;48.576;9.180;2022-11-27T05:11:27;97816.72;;;-0.88;100.00
11936;BME280;6027;48.576;9.180;2022-11-27T05:13:53;97812.00;;;-0.81;100.00
11936;BME280;6027;48.576;9.180;2022-11-27T05:16:39;97809.94;;;-0.76;100.00
11936;BME280;6027;48.576;9.180;2022-11-27T05:19:04;97811.53;;;-0.74;100.00
11936;BME280;6027;48.576;9.180;2022-11-27T05:21:30;97815.72;;;-0.71;100.00
11936;BME280;6027;48.576;9.180;2022-11-27T05:23:55;97813.97;;;-0.71;100.00
11936;BME280;6027;48.576;9.180;2022-11-27T05:26:20;97823.63;;;-0.73;100.00
11936;BME280;6027;48.576;9.180;2022-11-27T05:28:46;97816.72;;;-0.88;100.00
11936;BME280;6027;48.576;9.180;2022-11-27T05:31:11;97825.66;;;-0.78;100.00
11936;BME280;6027;48.576;9.180;2022-11-27T05:33:37;97812.94;;;-0.82;100.00
11936;BME280;6027;48.576;9.180;2022-11-27T05:36:02;97816.00;;;-1.06;100.00
11936;BME280;6027;48.576;9.180;2022-11-27T05:38:28;97824.81;;;-1.08;100.00
11936;BME280;6027;48.576;9.180;2022-11-27T05:40:53;97823.22;;;-1.11;100.00
11936;BME280;6027;48.576;9.180;2022-11-27T05:43:18;97822.56;;;-1.14;100.00
11936;BME280;6027;48.576;9.180;2022-11-27T05:45:44;97825.97;;;-1.44;100.00
11936;BME280;6027;48.576;9.180;2022-11-27T05:48:09;97825.53;;;-1.83;100.00
11936;BME280;6027;48.576;9.180;2022-11-27T05:50:35;97824.38;;;-1.62;100.00
11936;BME280;6027;48.576;9.180;2022-11-27T05:53:00;97821.84;;;-1.48;100.00
11936;BME280;6027;48.576;9.180;2022-11-27T05:55:25;97826.72;;;-1.42;100.00
11936;BME280;6027;48.576;9.180;2022-11-27T05:57:51;97828.03;;;-1.34;100.00
11936;BME280;6027;48.576;9.180;2022-11-27T06:00:17;97834.41;;;-1.24;100.00
11936;BME280;6027;48.576;9.180;2022-11-27T06:02:43;97839.69;;;-1.26;100.00
11936;BME280;6027;48.576;9.180;2022-11-27T06:05:08;97833.91;;;-1.31;100.00
11936;BME280;6027;48.576;9.180;2022-11-27T06:07:34;97833.72;;;-1.28;100.00
11936;BME280;6027;48.576;9.180;2022-11-27T06:09:59;97835.31;;;-1.25;100.00
11936;BME280;6027;48.576;9.180;2022-11-27T06:12:24;97841.50;;;-1.12;100.00
11936;BME280;6027;48.576;9.180;2022-11-27T06:14:50;97835.66;;;-1.16;100.00
11936;BME280;6027;48.576;9.180;2022-11-27T06:17:15;97830.34;;;-1.14;100.00
11936;BME280;6027;48.576;9.180;2022-11-27T06:19:44;97835.53;;;-1.14;100.00
11936;BME280;6027;48.576;9.180;2022-11-27T06:22:09;97836.03;;;-1.08;100.00
11936;BME280;6027;48.576;9.180;2022-11-27T06:24:35;97840.41;;;-1.08;100.00
11936;BME280;6027;48.576;9.180;2022-11-27T06:27:00;97834.91;;;-1.33;100.00
11936;BME280;6027;48.576;9.180;2022-11-27T06:29:26;97849.16;;;-1.41;100.00
11936;BME280;6027;48.576;9.180;2022-11-27T06:31:51;97848.06;;;-1.68;100.00
11936;BME280;6027;48.576;9.180;2022-11-27T06:34:17;97858.22;;;-1.63;100.00
11936;BME280;6027;48.576;9.180;2022-11-27T06:36:42;97859.72;;;-1.59;100.00
11936;BME280;6027;48.576;9.180;2022-11-27T06:39:09;97855.00;;;-1.53;100.00
11936;BME280;6027;48.576;9.180;2022-11-27T06:41:36;97848.25;;;-1.40;100.00
11936;BME280;6027;48.576;9.180;2022-11-27T06:44:02;97849.56;;;-1.48;100.00
11936;BME280;6027;48.576;9.180;2022-11-27T06:46:28;97843.94;;;-1.72;100.00
11936;BME280;6027;48.576;9.180;2022-11-27T06:48:54;97835.91;;;-1.67;100.00
11936;BME280;6027;48.576;9.180;2022-11-27T06:51:22;97836.91;;;-1.70;100.00
11936;BME280;6027;48.576;9.180;2022-11-27T06:53:49;97833.56;;;-1.88;100.00
11936;BME280;6027;48.576;9.180;2022-11-27T06:56:17;97846.66;;;-2.06;100.00
11936;BME280;6027;48.576;9.180;2022-11-27T06:58:43;97837.72;;;-2.17;100.00
11936;BME280;6027;48.576;9.180;2022-11-27T07:01:13;97822.00;;;-2.14;100.00
11936;BME280;6027;48.576;9.180;2022-11-27T07:03:39;97828.94;;;-2.14;100.00
11936;BME280;6027;48.576;9.180;2022-11-27T07:06:07;97822.84;;;-2.13;100.00
11936;BME280;6027;48.576;9.180;2022-11-27T07:08:34;97828.72;;;-1.94;100.00
11936;BME280;6027;48.576;9.180;2022-11-27T07:11:01;97818.16;;;-1.91;100.00
11936;BME280;6027;48.576;9.180;2022-11-27T07:13:28;97818.75;;;-1.86;100.00
11936;BME280;6027;48.576;9.180;2022-11-27T07:15:54;97809.03;;;-1.82;100.00
11936;BME280;6027;48.576;9.180;2022-11-27T07:18:19;97813.63;;;-1.87;100.00
11936;BME280;6027;48.576;9.180;2022-11-27T07:20:51;97815.91;;;-1.81;100.00
11936;BME280;6027;48.576;9.180;2022-11-27T07:23:17;97811.03;;;-1.71;100.00
11936;BME280;6027;48.576;9.180;2022-11-27T07:25:43;97809.72;;;-1.63;100.00
11936;BME280;6027;48.576;9.180;2022-11-27T07:30:41;97812.47;;;-1.66;100.00
11936;BME280;6027;48.576;9.180;2022-11-27T07:33:06;97806.09;;;-1.45;100.00
11936;BME280;6027;48.576;9.180;2022-11-27T07:35:32;97799.38;;;-1.33;100.00
11936;BME280;6027;48.576;9.180;2022-11-27T07:37:57;97787.56;;;-1.23;100.00
11936;BME280;6027;48.576;9.180;2022-11-27T07:40:22;97793.84;;;-1.27;100.00
11936;BME280;6027;48.576;9.180;2022-11-27T07:43:07;97789.69;;;-1.61;100.00
11936;BME280;6027;48.576;9.180;2022-11-27T07:45:33;97785.59;;;-1.65;100.00
11936;BME280;6027;48.576;9.180;2022-11-27T07:47:59;97766.41;;;-1.62;100.00
11936;BME280;6027;48.576;9.180;2022-11-27T07:50:24;97770.84;;;-1.49;100.00
11936;BME280;6027;48.576;9.180;2022-11-27T07:52:50;97773.75;;;-1.39;100.00
11936;BME280;6027;48.576;9.180;2022-11-27T07:55:15;97759.06;;;-1.24;100.00
11936;BME280;6027;48.576;9.180;2022-11-27T07:57:40;97753.53;;;-1.18;100.00
11936;BME280;6027;48.576;9.180;2022-11-27T08:00:07;97752.94;;;-1.23;100.00
11936;BME280;6027;48.576;9.180;2022-11-27T08:02:33;97751.88;;;-1.05;100.00
11936;BME280;6027;48.576;9.180;2022-11-27T08:04:58;97752.53;;;-1.01;100.00
11936;BME280;6027;48.576;9.180;2022-11-27T08:07:27;97748.34;;;-1.04;100.00
11936;BME280;6027;48.576;9.180;2022-11-27T08:09:53;97745.88;;;-0.91;100.00
11936;BME280;6027;48.576;9.180;2022-11-27T08:12:19;97739.28;;;-0.97;100.00
11936;BME280;6027;48.576;9.180;2022-11-27T08:14:44;97737.78;;;-1.01;100.00
11936;BME280;6027;48.576;9.180;2022-11-27T08:17:14;97737.34;;;-1.23;100.00
11936;BME280;6027;48.576;9.180;2022-11-27T08:19:40;97739.31;;;-1.13;100.00
11936;BME280;6027;48.576;9.180;2022-11-27T08:22:11;97737.97;;;-1.04;100.00
11936;BME280;6027;48.576;9.180;2022-11-27T08:24:36;97742.81;;;-0.98;100.00
11936;BME280;6027;48.576;9.180;2022-11-27T08:27:03;97737.63;;;-0.98;100.00
11936;BME280;6027;48.576;9.180;2022-11-27T08:29:28;97745.59;;;-0.87;100.00
11936;BME280;6027;48.576;9.180;2022-11-27T08:31:54;97747.84;;;-0.81;100.00
11936;BME280;6027;48.576;9.180;2022-11-27T08:34:19;97747.09;;;-0.68;100.00
11936;BME280;6027;48.576;9.180;2022-11-27T08:36:45;97741.72;;;-0.37;100.00
11936;BME280;6027;48.576;9.180;2022-11-27T08:39:10;97751.47;;;-0.12;100.00
11936;BME280;6027;48.576;9.180;2022-11-27T08:41:36;97740.53;;;0.24;100.00
11936;BME280;6027;48.576;9.180;2022-11-27T08:44:02;97735.66;;;0.59;100.00
11936;BME280;6027;48.576;9.180;2022-11-27T08:46:27;97733.97;;;0.85;100.00
11936;BME280;6027;48.576;9.180;2022-11-27T08:48:53;97727.88;;;1.11;100.00
11936;BME280;6027;48.576;9.180;2022-11-27T08:51:18;97719.59;;;1.17;100.00
11936;BME280;6027;48.576;9.180;2022-11-27T08:53:43;97728.50;;;1.27;100.00
11936;BME280;6027;48.576;9.180;2022-11-27T08:56:15;97727.78;;;1.51;100.00
11936;BME280;6027;48.576;9.180;2022-11-27T08:58:42;97721.38;;;1.55;100.00
11936;BME280;6027;48.576;9.180;2022-11-27T09:01:10;97723.22;;;1.78;100.00
11936;BME280;6027;48.576;9.180;2022-11-27T09:03:36;97716.56;;;1.87;100.00
11936;BME280;6027;48.576;9.180;2022-11-27T09:06:05;97703.50;;;1.87;100.00
11936;BME280;6027;48.576;9.180;2022-11-27T09:08:31;97702.50;;;2.00;100.00
11936;BME280;6027;48.576;9.180;2022-11-27T09:10:59;97716.34;;;1.77;100.00
11936;BME280;6027;48.576;9.180;2022-11-27T09:13:32;97716.88;;;1.57;100.00
11936;BME280;6027;48.576;9.180;2022-11-27T09:15:57;97715.56;;;1.51;100.00
11936;BME280;6027;48.576;9.180;2022-11-27T09:18:23;97704.69;;;1.57;100.00
11936;BME280;6027;48.576;9.180;2022-11-27T09:20:57;97707.91;;;1.61;100.00
11936;BME280;6027;48.576;9.180;2022-11-27T09:23:23;97700.06;;;1.73;100.00
11936;BME280;6027;48.576;9.180;2022-11-27T09:25:48;97695.56;;;1.76;100.00
11936;BME280;6027;48.576;9.180;2022-11-27T09:28:14;97691.69;;;1.81;100.00
11936;BME280;6027;48.576;9.180;2022-11-27T09:30:41;97686.25;;;1.84;100.00
11936;BME280;6027;48.576;9.180;2022-11-27T09:33:06;97692.00;;;1.89;100.00
11936;BME280;6027;48.576;9.180;2022-11-27T09:35:32;97683.50;;;1.98;100.00
11936;BME280;6027;48.576;9.180;2022-11-27T09:37:57;97682.50;;;1.88;100.00
11936;BME280;6027;48.576;9.180;2022-11-27T09:40:23;97697.00;;;1.92;100.00
11936;BME280;6027;48.576;9.180;2022-11-27T09:42:58;97701.72;;;1.87;100.00
11936;BME280;6027;48.576;9.180;2022-11-27T09:45:27;97703.38;;;1.88;100.00
11936;BME280;6027;48.576;9.180;2022-11-27T09:47:56;97696.66;;;1.97;100.00
11936;BME280;6027;48.576;9.180;2022-11-27T09:50:26;97689.78;;;1.96;100.00
11936;BME280;6027;48.576;9.180;2022-11-27T09:52:57;97688.84;;;1.97;100.00
11936;BME280;6027;48.576;9.180;2022-11-27T09:55:25;97675.56;;;2.00;100.00
11936;BME280;6027;48.576;9.180;2022-11-27T10:00:22;97665.84;;;2.26;100.00
11936;BME280;6027;48.576;9.180;2022-11-27T10:02:48;97664.50;;;2.20;100.00
11936;BME280;6027;48.576;9.180;2022-11-27T10:05:18;97662.91;;;2.30;100.00
11936;BME280;6027;48.576;9.180;2022-11-27T10:08:02;97663.28;;;2.37;100.00
11936;BME280;6027;48.576;9.180;2022-11-27T10:10:40;97652.41;;;2.43;100.00
11936;BME280;6027;48.576;9.180;2022-11-27T10:13:11;97638.41;;;2.55;100.00
11936;BME280;6027;48.576;9.180;2022-11-27T10:15:45;97640.41;;;2.52;100.00
11936;BME280;6027;48.576;9.180;2022-11-27T10:26:37;97620.88;;;2.68;100.00
11936;BME280;6027;48.576;9.180;2022-11-27T10:29:35;97616.84;;;2.75;100.00
11936;BME280;6027;48.576;9.180;2022-11-27T10:32:18;97625.94;;;3.05;100.00
11936;BME280;6027;48.576;9.180;2022-11-27T10:34:54;97610.97;;;3.18;100.00
11936;BME280;6027;48.576;9.180;2022-11-27T10:37:26;97615.47;;;3.38;100.00
11936;BME280;6027;48.576;9.180;2022-11-27T10:39:57;97612.63;;;3.30;100.00
11936;BME280;6027;48.576;9.180;2022-11-27T10:47:45;97613.34;;;3.43;100.00
11936;BME280;6027;48.576;9.180;2022-11-27T10:50:14;97604.06;;;3.39;100.00
11936;BME280;6027;48.576;9.180;2022-11-27T10:52:52;97589.91;;;3.42;100.00
11936;BME280;6027;48.576;9.180;2022-11-27T10:55:46;97574.06;;;3.55;100.00
11936;BME280;6027;48.576;9.180;2022-11-27T11:01:12;97574.03;;;3.66;100.00
11936;BME280;6027;48.576;9.180;2022-11-27T11:03:38;97562.00;;;3.74;100.00
11936;BME280;6027;48.576;9.180;2022-11-27T11:06:07;97564.25;;;3.79;100.00
11936;BME280;6027;48.576;9.180;2022-11-27T11:08:33;97557.94;;;3.81;100.00
11936;BME280;6027;48.576;9.180;2022-11-27T11:11:04;97546.88;;;3.78;100.00
11936;BME280;6027;48.576;9.180;2022-11-27T11:13:32;97553.72;;;3.90;100.00
11936;BME280;6027;48.576;9.180;2022-11-27T11:16:17;97552.03;;;4.00;100.00
11936;BME280;6027;48.576;9.180;2022-11-27T11:18:50;97546.75;;;4.11;100.00
11936;BME280;6027;48.576;9.180;2022-11-27T11:21:28;97534.03;;;4.28;100.00
11936;BME280;6027;48.576;9.180;2022-11-27T11:24:06;97537.00;;;4.34;100.00
11936;BME280;6027;48.576;9.180;2022-11-27T11:26:39;97529.63;;;4.49;100.00
11936;BME280;6027;48.576;9.180;2022-11-27T11:29:39;97529.59;;;4.60;100.00
11936;BME280;6027;48.576;9.180;2022-11-27T11:32:25;97511.31;;;4.79;100.00
11936;BME280;6027;48.576;9.180;2022-11-27T11:35:40;97503.34;;;4.91;100.00
11936;BME280;6027;48.576;9.180;2022-11-27T11:37:46;97507.28;;;5.06;100.00
11936;BME280;6027;48.576;9.180;2022-11-27T11:42:51;97488.91;;;5.55;100.00
11936;BME280;6027;48.576;9.180;2022-11-27T11:45:18;97476.88;;;5.53;100.00
11936;BME280;6027;48.576;9.180;2022-11-27T11:47:50;97474.13;;;5.54;100.00
11936;BME280;6027;48.576;9.180;2022-11-27T11:50:32;97471.19;;;5.48;100.00
11936;BME280;6027;48.576;9.180;2022-11-27T11:53:32;97468.84;;;5.45;100.00
11936;BME280;6027;48.576;9.180;2022-11-27T11:56:30;97470.91;;;5.41;100.00
11936;BME280;6027;48.576;9.180;2022-11-27T11:59:26;97460.66;;;5.29;100.00
11936;BME280;6027;48.576;9.180;2022-11-27T12:07:47;97440.09;;;5.63;100.00
11936;BME280;6027;48.576;9.180;2022-11-27T12:13:38;97437.47;;;5.63;100.00
11936;BME280;6027;48.576;9.180;2022-11-27T12:20:32;97426.16;;;5.81;100.00
11936;BME280;6027;48.576;9.180;2022-11-27T12:25:23;97423.94;;;5.86;100.00
11936;BME280;6027;48.576;9.180;2022-11-27T12:31:31;97408.03;;;5.88;100.00
11936;BME280;6027;48.576;9.180;2022-11-27T12:34:06;97413.19;;;5.89;100.00
11936;BME280;6027;48.576;9.180;2022-11-27T12:45:17;97402.38;;;6.02;100.00
11936;BME280;6027;48.576;9.180;2022-11-27T12:47:52;97398.78;;;6.03;100.00
11936;BME280;6027;48.576;9.180;2022-11-27T12:50:20;97395.16;;;6.04;100.00
11936;BME280;6027;48.576;9.180;2022-11-27T12:52:57;97395.44;;;6.11;100.00
11936;BME280;6027;48.576;9.180;2022-11-27T12:55:25;97389.59;;;6.27;100.00
11936;BME280;6027;48.576;9.180;2022-11-27T12:58:03;97382.50;;;6.37;100.00
11936;BME280;6027;48.576;9.180;2022-11-27T13:00:34;97393.63;;;6.58;100.00
11936;BME280;6027;48.576;9.180;2022-11-27T13:03:10;97392.97;;;6.83;100.00
11936;BME280;6027;48.576;9.180;2022-11-27T13:05:47;97389.09;;;6.87;100.00
11936;BME280;6027;48.576;9.180;2022-11-27T13:08:20;97374.44;;;7.03;100.00
11936;BME280;6027;48.576;9.180;2022-11-27T13:10:55;97370.25;;;7.10;100.00
11936;BME280;6027;48.576;9.180;2022-11-27T13:13:47;97371.97;;;7.19;100.00
11936;BME280;6027;48.576;9.180;2022-11-27T13:16:24;97358.66;;;7.20;100.00
11936;BME280;6027;48.576;9.180;2022-11-27T13:18:55;97367.84;;;7.16;100.00
11936;BME280;6027;48.576;9.180;2022-11-27T13:21:27;97361.19;;;7.12;97.74
11936;BME280;6027;48.576;9.180;2022-11-27T13:23:54;97362.50;;;7.26;96.39
11936;BME280;6027;48.576;9.180;2022-11-27T13:29:16;97353.25;;;7.40;97.12
11936;BME280;6027;48.576;9.180;2022-11-27T13:31:45;97348.56;;;7.34;97.30
11936;BME280;6027;48.576;9.180;2022-11-27T13:34:20;97342.63;;;7.32;99.69
11936;BME280;6027;48.576;9.180;2022-11-27T13:36:56;97344.09;;;7.26;100.00
11936;BME280;6027;48.576;9.180;2022-11-27T13:39:31;97339.00;;;7.15;100.00
11936;BME280;6027;48.576;9.180;2022-11-27T13:42:21;97348.13;;;7.20;100.00
11936;BME280;6027;48.576;9.180;2022-11-27T13:44:59;97337.75;;;7.19;100.00
11936;BME280;6027;48.576;9.180;2022-11-27T13:47:28;97344.59;;;7.12;100.00
11936;BME280;6027;48.576;9.180;2022-11-27T13:50:15;97342.16;;;7.01;100.00
11936;BME280;6027;48.576;9.180;2022-11-27T13:52:59;97343.38;;;7.06;100.00
11936;BME280;6027;48.576;9.180;2022-11-27T13:55:30;97327.59;;;7.06;100.00
11936;BME280;6027;48.576;9.180;2022-11-27T13:57:58;97335.94;;;7.02;100.00
11936;BME280;6027;48.576;9.180;2022-11-27T14:00:39;97322.66;;;6.93;100.00
11936;BME280;6027;48.576;9.180;2022-11-27T14:03:07;97328.00;;;6.84;100.00
11936;BME280;6027;48.576;9.180;2022-11-27T14:05:39;97322.59;;;6.85;100.00
11936;BME280;6027;48.576;9.180;2022-11-27T14:08:16;97325.91;;;6.87;100.00
11936;BME280;6027;48.576;9.180;2022-11-27T14:10:50;97325.66;;;6.81;100.00
11936;BME280;6027;48.576;9.180;2022-11-27T14:13:17;97332.88;;;6.79;100.00
11936;BME280;6027;48.576;9.180;2022-11-27T14:15:43;97320.41;;;6.81;100.00
11936;BME280;6027;48.576;9.180;2022-11-27T14:18:21;97318.84;;;6.61;100.00
11936;BME280;6027;48.576;9.180;2022-11-27T14:20:58;97315.78;;;6.65;100.00
11936;BME280;6027;48.576;9.180;2022-11-27T14:23:35;97316.31;;;6.69;100.00
11936;BME280;6027;48.576;9.180;2022-11-27T14:26:34;97312.44;;;6.73;100.00
11936;BME280;6027;48.576;9.180;2022-11-27T14:28:55;97308.22;;;6.80;100.00
11936;BME280;6027;48.576;9.180;2022-11-27T14:31:28;97310.16;;;6.78;100.00
11936;BME280;6027;48.576;9.180;2022-11-27T14:33:55;97308.59;;;6.85;100.00
11936;BME280;6027;48.576;9.180;2022-11-27T14:36:26;97309.03;;;6.80;100.00
11936;BME280;6027;48.576;9.180;2022-11-27T14:38:54;97301.97;;;6.81;100.00
11936;BME280;6027;48.576;9.180;2022-11-27T14:41:21;97299.03;;;6.66;100.00
11936;BME280;6027;48.576;9.180;2022-11-27T14:43:48;97294.22;;;6.79;100.00